METAR Data
IDs: Format: Raw Decoded Include TAF

Data at: 2126 UTC 08 Aug 2020

METAR for:KM54 (Lebanon Muni, TN, US)
Text:KM54 082115Z AUTO 31004KT 10SM CLR 32/19 A3010 RMK A01
Temperature: 32.0°C ( 90°F)
Dewpoint: 19.0°C ( 66°F) [RH = 46%]
Pressure (altimeter):30.10 inches Hg (1019.4 mb)
Winds:from the NW (310 degrees) at 5 MPH (4 knots; 2.1 m/s)
Visibility:10 or more sm (16+ km)
Ceiling:at least 12,000 feet AGL
Clouds:sky clear below 12,000 feet AGL
QC Flag:automated observation with no human augmentation